createdAt,value
2022-12-24T00:01:40.410Z,151.83
2022-12-24T00:04:09.816Z,158.70
2022-12-24T00:06:39.449Z,169.10
2022-12-24T00:09:10.007Z,154.90
2022-12-24T00:11:39.349Z,156.65
2022-12-24T00:14:08.565Z,162.93
2022-12-24T00:16:39.267Z,151.20
2022-12-24T00:19:08.674Z,155.27
2022-12-24T00:21:37.897Z,151.23
2022-12-24T00:24:07.480Z,153.35
2022-12-24T00:26:36.718Z,156.90
2022-12-24T00:29:06.504Z,148.35
2022-12-24T00:31:36.005Z,152.50
2022-12-24T00:34:05.236Z,150.30
2022-12-24T00:36:34.631Z,155.40
2022-12-24T00:39:03.914Z,159.20
2022-12-24T00:41:33.188Z,147.80
2022-12-24T00:44:05.277Z,149.20
2022-12-24T00:46:34.896Z,152.17
2022-12-24T00:49:04.736Z,165.05
2022-12-24T00:51:34.743Z,159.23
2022-12-24T00:54:04.543Z,162.67
2022-12-24T00:56:34.518Z,153.60
2022-12-24T00:59:03.707Z,154.63
2022-12-24T01:01:33.051Z,162.60
2022-12-24T01:04:16.963Z,154.53
2022-12-24T01:06:46.335Z,157.10
2022-12-24T01:09:15.741Z,161.37
2022-12-24T01:11:45.811Z,168.30
2022-12-24T01:14:14.945Z,166.93
2022-12-24T01:16:44.224Z,167.70
2022-12-24T01:19:13.543Z,163.00
2022-12-24T01:21:42.787Z,156.45
2022-12-24T01:24:14.767Z,158.67
2022-12-24T01:26:44.272Z,157.55
2022-12-24T01:29:13.477Z,150.50
2022-12-24T01:31:42.856Z,155.05
2022-12-24T01:34:12.203Z,154.20
2022-12-24T01:36:41.538Z,155.23
2022-12-24T01:39:10.724Z,157.40
2022-12-24T01:41:58.209Z,153.40
2022-12-24T01:44:36.140Z,155.63
2022-12-24T01:47:09.317Z,155.80
2022-12-24T01:49:39.536Z,163.77
2022-12-24T01:52:11.052Z,155.50
2022-12-24T01:54:42.493Z,159.77
2022-12-24T01:57:15.676Z,160.57
2022-12-24T01:59:47.588Z,153.87
2022-12-24T02:02:18.083Z,158.07
2022-12-24T02:04:51.168Z,160.43
2022-12-24T02:07:20.421Z,156.60
2022-12-24T02:09:49.900Z,144.93
2022-12-24T02:12:19.197Z,155.00
2022-12-24T02:14:48.703Z,159.10
2022-12-24T02:17:21.553Z,155.27
2022-12-24T02:20:05.123Z,147.50
2022-12-24T02:22:40.570Z,151.60
2022-12-24T02:25:15.375Z,154.70
2022-12-24T02:27:51.132Z,143.95
2022-12-24T02:30:20.996Z,148.67
2022-12-24T02:32:56.835Z,146.40
2022-12-24T02:35:30.336Z,143.93
2022-12-24T02:38:02.385Z,152.07
2022-12-24T02:40:36.363Z,148.50
2022-12-24T02:43:08.351Z,143.80
2022-12-24T02:45:40.323Z,145.90
2022-12-24T02:48:10.724Z,157.60
2022-12-24T02:50:39.975Z,145.50
2022-12-24T02:53:10.712Z,153.10
2022-12-24T02:55:46.767Z,149.13
2022-12-24T02:58:25.784Z,146.60
2022-12-24T03:01:15.652Z,155.15
2022-12-24T03:04:00.268Z,144.83
2022-12-24T03:06:35.002Z,156.45
2022-12-24T03:09:07.493Z,143.90
2022-12-24T03:14:04.963Z,146.10
2022-12-24T03:16:34.411Z,145.73
2022-12-24T03:19:04.003Z,149.77
2022-12-24T03:21:34.615Z,146.50
2022-12-24T03:24:04.101Z,158.10
2022-12-24T03:26:33.759Z,154.37
2022-12-24T03:29:05.973Z,152.33
2022-12-24T03:31:46.225Z,148.00
2022-12-24T03:34:16.027Z,156.60
2022-12-24T03:36:46.142Z,150.60
2022-12-24T03:39:15.571Z,155.33
2022-12-24T03:41:44.976Z,170.27
2022-12-24T03:44:14.424Z,157.57
2022-12-24T03:46:43.800Z,160.03
2022-12-24T03:49:13.262Z,162.45
2022-12-24T03:51:42.354Z,160.13
2022-12-24T03:54:11.935Z,161.67
2022-12-24T03:56:41.356Z,154.57
2022-12-24T03:59:10.674Z,161.90
2022-12-24T04:01:39.962Z,154.87
2022-12-24T04:04:09.290Z,161.20
2022-12-24T04:06:38.603Z,161.33
2022-12-24T04:09:08.404Z,163.90
2022-12-24T04:11:37.620Z,155.30
2022-12-24T04:14:06.880Z,157.45
2022-12-24T04:16:36.605Z,161.43
2022-12-24T04:19:05.890Z,155.57
2022-12-24T04:21:35.208Z,165.70
2022-12-24T04:24:04.970Z,158.70
2022-12-24T04:26:34.325Z,158.50
2022-12-24T04:29:03.705Z,155.53
2022-12-24T04:31:32.962Z,148.60
2022-12-24T04:34:02.421Z,148.80
2022-12-24T04:36:31.763Z,149.77
2022-12-24T04:39:01.041Z,148.07
2022-12-24T04:41:30.247Z,163.23
2022-12-24T04:43:59.626Z,171.50
2022-12-24T04:46:30.611Z,168.47
2022-12-24T04:49:00.119Z,170.10
2022-12-24T04:51:29.680Z,171.55
2022-12-24T04:53:59.132Z,171.40
2022-12-24T04:56:30.102Z,168.60
2022-12-24T04:59:00.234Z,156.43
2022-12-24T05:01:30.456Z,152.37
2022-12-24T05:03:59.851Z,157.80
2022-12-24T05:06:31.651Z,160.67
2022-12-24T05:09:01.034Z,164.63
2022-12-24T05:11:30.338Z,165.53
2022-12-24T05:13:59.690Z,162.33
2022-12-24T05:16:30.760Z,165.93
2022-12-24T05:19:00.308Z,160.10
2022-12-24T05:21:29.606Z,160.20
2022-12-24T05:24:16.558Z,158.70
2022-12-24T05:26:47.076Z,150.83
2022-12-24T05:29:16.331Z,149.20
2022-12-24T05:31:46.308Z,152.87
2022-12-24T05:34:16.612Z,173.40
2022-12-24T05:36:45.928Z,171.57
2022-12-24T05:39:16.416Z,161.90
2022-12-24T05:41:46.378Z,173.57
2022-12-24T05:44:16.314Z,165.63
2022-12-24T05:46:46.045Z,160.50
2022-12-24T05:49:15.296Z,159.57
2022-12-24T05:51:44.836Z,153.10
2022-12-24T05:54:14.175Z,151.87
2022-12-24T05:56:43.501Z,148.75
2022-12-24T05:59:12.799Z,150.37
2022-12-24T06:01:45.089Z,142.67
2022-12-24T06:06:42.770Z,144.53
2022-12-24T06:09:11.995Z,136.27
2022-12-24T06:11:41.421Z,153.17
2022-12-24T06:14:10.755Z,154.93
2022-12-24T06:16:40.073Z,144.37
2022-12-24T06:19:09.389Z,156.63
2022-12-24T06:21:38.550Z,158.63
2022-12-24T06:24:08.467Z,154.23
2022-12-24T06:26:37.632Z,166.63
2022-12-24T06:29:07.114Z,175.27
2022-12-24T06:31:36.576Z,172.65
2022-12-24T06:34:06.002Z,173.53
2022-12-24T06:36:35.416Z,164.87
2022-12-24T06:39:05.128Z,161.50
2022-12-24T06:41:34.538Z,159.40
2022-12-24T06:44:04.009Z,158.50
2022-12-24T06:46:33.279Z,167.80
2022-12-24T06:49:02.412Z,167.40
2022-12-24T06:51:31.615Z,166.23
2022-12-24T06:54:00.779Z,163.00
2022-12-24T06:56:30.248Z,161.47
2022-12-24T06:59:05.088Z,152.50
2022-12-24T07:01:34.933Z,155.47
2022-12-24T07:04:04.535Z,156.80
2022-12-24T07:06:33.864Z,146.50
2022-12-24T07:09:03.397Z,154.97
2022-12-24T07:11:33.071Z,148.03
2022-12-24T07:14:02.426Z,154.60
2022-12-24T07:16:31.847Z,152.83
2022-12-24T07:19:01.237Z,144.90
2022-12-24T07:21:31.645Z,153.97
2022-12-24T07:24:04.565Z,142.97
2022-12-24T07:26:34.117Z,151.45
2022-12-24T07:29:03.620Z,152.00
2022-12-24T07:31:33.020Z,145.45
2022-12-24T07:34:02.736Z,144.65
2022-12-24T07:36:33.822Z,145.97
2022-12-24T07:39:03.177Z,141.00
2022-12-24T07:41:37.996Z,147.30
2022-12-24T07:44:12.635Z,153.00
2022-12-24T07:46:42.106Z,158.10
2022-12-24T07:49:16.804Z,157.85
2022-12-24T07:51:46.238Z,159.17
2022-12-24T07:54:32.943Z,150.30
2022-12-24T07:57:14.520Z,153.45
2022-12-24T07:59:44.770Z,149.42
2022-12-24T08:02:18.286Z,141.83
2022-12-24T08:04:48.193Z,139.05
2022-12-24T08:07:18.428Z,147.80
2022-12-24T08:09:47.706Z,136.73
2022-12-24T08:12:16.934Z,137.60
2022-12-24T08:14:46.214Z,134.85
2022-12-24T08:17:15.627Z,132.10
2022-12-24T08:19:44.932Z,123.27
2022-12-24T08:22:15.341Z,121.90
2022-12-24T08:24:44.688Z,117.90
2022-12-24T08:27:14.116Z,131.67
2022-12-24T08:29:43.371Z,137.00
2022-12-24T08:32:12.621Z,125.30
2022-12-24T08:34:41.936Z,125.93
2022-12-24T08:37:11.147Z,128.90
2022-12-24T08:39:40.377Z,137.60
2022-12-24T08:42:09.707Z,123.00
2022-12-24T08:44:38.979Z,130.55
2022-12-24T08:47:08.509Z,123.35
2022-12-24T08:49:39.782Z,124.75
2022-12-24T08:52:09.207Z,119.93
2022-12-24T08:54:38.455Z,117.37
2022-12-24T08:57:07.672Z,120.80
2022-12-24T08:59:37.439Z,118.70
2022-12-24T09:02:06.801Z,117.07
2022-12-24T09:04:40.181Z,104.10
2022-12-24T09:07:27.280Z,103.80
2022-12-24T09:09:59.480Z,102.40
2022-12-24T09:12:28.826Z,103.07
2022-12-24T09:15:03.397Z,102.25
2022-12-24T09:17:34.116Z,104.30
2022-12-24T09:20:04.038Z,102.87
2022-12-24T09:22:34.099Z,104.60
2022-12-24T09:25:04.210Z,98.43
2022-12-24T09:27:33.675Z,95.70
2022-12-24T09:30:03.626Z,89.20
2022-12-24T09:32:33.166Z,83.50
2022-12-24T09:35:02.426Z,85.77
2022-12-24T09:37:32.104Z,86.60
2022-12-24T09:40:01.515Z,84.35
2022-12-24T09:42:37.559Z,87.53
2022-12-24T09:45:12.827Z,85.35
2022-12-24T09:47:44.104Z,88.15
2022-12-24T09:50:22.060Z,84.90
2022-12-24T09:52:52.639Z,88.25
2022-12-24T09:55:23.934Z,84.93
2022-12-24T09:57:53.993Z,78.90
2022-12-24T10:00:25.751Z,84.10
2022-12-24T10:02:55.075Z,84.90
2022-12-24T10:05:29.500Z,83.45
2022-12-24T10:08:01.699Z,83.43
2022-12-24T10:13:05.238Z,84.40
2022-12-24T10:15:36.604Z,84.47
2022-12-24T10:18:11.574Z,93.87
2022-12-24T10:20:45.591Z,85.50
2022-12-24T10:23:19.583Z,86.73
2022-12-24T10:25:51.388Z,84.05
2022-12-24T10:28:23.887Z,88.00
2022-12-24T10:30:55.351Z,84.50
2022-12-24T10:33:29.017Z,90.10
2022-12-24T10:35:58.727Z,86.95
2022-12-24T10:38:28.273Z,83.25
2022-12-24T10:40:59.471Z,81.90
2022-12-24T10:43:29.782Z,87.90
2022-12-24T10:46:01.272Z,85.30
2022-12-24T10:48:36.352Z,88.80
2022-12-24T10:51:12.753Z,83.35
2022-12-24T10:53:44.571Z,78.60
2022-12-24T10:56:15.487Z,82.37
2022-12-24T10:58:45.647Z,89.50
2022-12-24T11:01:15.356Z,87.70
2022-12-24T11:03:44.701Z,81.30
2022-12-24T11:06:15.197Z,85.93
2022-12-24T11:08:45.072Z,81.50
2022-12-24T11:11:15.863Z,76.13
2022-12-24T11:13:46.095Z,74.33
2022-12-24T11:16:25.302Z,76.80
2022-12-24T11:18:56.413Z,64.60
2022-12-24T11:21:27.154Z,67.25
2022-12-24T11:23:57.592Z,65.80
2022-12-24T11:26:28.709Z,64.63
2022-12-24T11:29:13.834Z,65.40
2022-12-24T11:31:43.264Z,59.45
2022-12-24T11:34:26.532Z,64.55
2022-12-24T11:37:12.351Z,61.85
2022-12-24T11:39:46.475Z,63.10
2022-12-24T11:42:25.336Z,65.10
2022-12-24T11:44:55.179Z,65.85
2022-12-24T11:47:33.820Z,73.45
2022-12-24T11:50:24.080Z,75.35
2022-12-24T11:52:55.971Z,79.23
2022-12-24T11:55:30.013Z,85.38
2022-12-24T11:58:03.467Z,82.75
2022-12-24T12:00:32.717Z,86.27
2022-12-24T12:03:03.120Z,83.20
2022-12-24T12:05:33.622Z,83.40
2022-12-24T12:08:08.494Z,82.05
2022-12-24T12:10:40.483Z,85.25
2022-12-24T12:13:15.370Z,83.52
2022-12-24T12:15:47.413Z,77.95
2022-12-24T12:18:19.548Z,78.97
2022-12-24T12:20:50.484Z,78.10
2022-12-24T12:23:23.625Z,77.05
2022-12-24T12:25:55.030Z,78.70
2022-12-24T12:28:26.882Z,81.05
2022-12-24T12:31:01.080Z,76.05
2022-12-24T12:33:33.989Z,75.95
2022-12-24T12:36:03.925Z,73.83
2022-12-24T12:38:33.518Z,69.93
2022-12-24T12:41:10.287Z,71.50
2022-12-24T12:43:48.943Z,67.60
2022-12-24T12:46:21.087Z,74.70
2022-12-24T12:49:02.866Z,71.77
2022-12-24T12:51:36.400Z,67.90
2022-12-24T12:57:28.828Z,68.75
2022-12-24T13:00:01.533Z,69.55
2022-12-24T13:02:43.601Z,73.90
2022-12-24T13:05:30.695Z,74.12
2022-12-24T13:08:12.234Z,75.40
2022-12-24T13:10:50.567Z,74.53
2022-12-24T13:13:31.640Z,72.75
2022-12-24T13:16:11.728Z,76.75
2022-12-24T13:18:48.371Z,69.85
2022-12-24T13:21:20.467Z,72.97
2022-12-24T13:23:50.260Z,75.30
2022-12-24T13:26:19.727Z,73.90
2022-12-24T13:28:48.946Z,74.95
2022-12-24T13:31:27.553Z,73.65
2022-12-24T13:34:00.426Z,73.00
2022-12-24T13:36:47.724Z,74.95
2022-12-24T13:39:19.327Z,74.60
2022-12-24T13:41:52.300Z,77.75
2022-12-24T13:44:23.183Z,77.20
2022-12-24T13:46:57.612Z,75.75
2022-12-24T13:49:29.196Z,69.53
2022-12-24T13:52:14.753Z,76.17
2022-12-24T13:54:45.720Z,77.07
2022-12-24T13:57:30.825Z,79.70
2022-12-24T14:00:01.888Z,81.15
2022-12-24T14:02:45.892Z,84.55
2022-12-24T14:05:21.679Z,83.60
2022-12-24T14:07:53.168Z,81.43
2022-12-24T14:10:24.583Z,85.85
2022-12-24T14:12:54.689Z,85.10
2022-12-24T14:15:42.013Z,85.57
2022-12-24T14:18:11.576Z,84.50
2022-12-24T14:20:40.891Z,79.00
2022-12-24T14:23:20.927Z,75.20
2022-12-24T14:25:50.890Z,80.80
2022-12-24T14:28:30.384Z,76.90
2022-12-24T14:31:01.415Z,74.00
2022-12-24T14:33:31.289Z,79.00
2022-12-24T14:36:01.777Z,74.25
2022-12-24T14:38:31.121Z,81.07
2022-12-24T14:41:19.476Z,79.20
2022-12-24T14:43:52.209Z,81.07
2022-12-24T14:46:25.152Z,80.45
2022-12-24T14:48:56.658Z,78.80
2022-12-24T14:51:32.707Z,85.35
2022-12-24T14:54:11.181Z,81.30
2022-12-24T14:56:43.842Z,84.85
2022-12-24T14:59:17.711Z,77.25
2022-12-24T15:01:47.264Z,76.15
2022-12-24T15:04:18.984Z,75.25
2022-12-24T15:06:54.818Z,80.80
2022-12-24T15:09:25.572Z,78.65
2022-12-24T15:11:56.361Z,79.30
2022-12-24T15:14:27.483Z,75.33
2022-12-24T15:16:59.283Z,80.40
2022-12-24T15:19:32.340Z,78.25
2022-12-24T15:22:03.005Z,75.47
2022-12-24T15:24:33.400Z,80.77
2022-12-24T15:27:13.051Z,86.83
2022-12-24T15:29:44.553Z,79.95
2022-12-24T15:32:15.507Z,83.78
2022-12-24T15:34:45.789Z,79.23
2022-12-24T15:37:17.776Z,84.95
2022-12-24T15:39:52.249Z,76.30
2022-12-24T15:42:22.488Z,79.83
2022-12-24T15:44:58.395Z,77.70
2022-12-24T15:47:37.456Z,83.95
2022-12-24T15:50:11.413Z,77.33
2022-12-24T15:52:41.213Z,82.20
2022-12-24T15:55:24.593Z,78.17
2022-12-24T15:57:54.407Z,78.80
2022-12-24T16:00:27.041Z,79.67
2022-12-24T16:03:11.472Z,75.45
2022-12-24T16:05:41.063Z,74.20
2022-12-24T16:08:24.260Z,82.55
2022-12-24T16:11:07.804Z,79.30
2022-12-24T16:13:39.248Z,79.10
2022-12-24T16:16:19.793Z,81.63
2022-12-24T16:19:07.821Z,78.87
2022-12-24T16:21:40.794Z,83.70
2022-12-24T16:24:20.037Z,85.05
2022-12-24T16:26:54.932Z,79.95
2022-12-24T16:29:26.874Z,78.80
2022-12-24T16:31:58.087Z,83.27
2022-12-24T16:34:28.852Z,83.10
2022-12-24T16:36:58.963Z,84.15
2022-12-24T16:39:48.066Z,81.40
2022-12-24T16:42:36.271Z,79.55
2022-12-24T16:45:36.793Z,80.55
2022-12-24T16:58:43.709Z,87.80
2022-12-24T17:05:00.220Z,91.15
2022-12-24T17:07:35.216Z,86.35
2022-12-24T17:10:10.758Z,92.40
2022-12-24T17:12:40.323Z,91.67
2022-12-24T17:15:11.185Z,86.40
2022-12-24T17:17:40.499Z,89.55
2022-12-24T17:20:10.323Z,90.85
2022-12-24T17:22:40.295Z,94.70
2022-12-24T17:25:12.127Z,94.80
2022-12-24T17:27:41.495Z,97.15
2022-12-24T17:30:11.641Z,101.60
2022-12-24T17:32:41.097Z,100.13
2022-12-24T17:35:10.792Z,100.55
2022-12-24T17:37:40.397Z,98.50
2022-12-24T17:40:11.596Z,93.65
2022-12-24T17:42:41.524Z,102.15
2022-12-24T17:45:12.321Z,101.45
2022-12-24T17:47:41.637Z,91.45
2022-12-24T17:50:11.367Z,101.35
2022-12-24T17:52:40.864Z,91.75
2022-12-24T17:55:10.547Z,89.85
2022-12-24T17:57:40.218Z,87.10
2022-12-24T18:00:11.608Z,85.10
2022-12-24T18:02:41.157Z,87.60
2022-12-24T18:05:10.997Z,91.90
2022-12-24T18:07:40.322Z,90.85
2022-12-24T18:10:10.727Z,93.10
2022-12-24T18:12:40.672Z,82.75
2022-12-24T18:15:10.616Z,88.00
2022-12-24T18:17:39.970Z,89.60
2022-12-24T18:20:09.972Z,85.85
2022-12-24T18:22:39.535Z,86.80
2022-12-24T18:25:09.985Z,84.85
2022-12-24T18:27:39.258Z,85.50
2022-12-24T18:30:09.928Z,86.15
2022-12-24T18:32:39.233Z,90.20
2022-12-24T18:35:09.317Z,90.35
2022-12-24T18:37:38.815Z,85.45
2022-12-24T18:40:09.170Z,85.40
2022-12-24T18:42:41.244Z,105.85
2022-12-24T18:45:11.534Z,102.72
2022-12-24T18:47:41.136Z,91.05
2022-12-24T18:50:10.754Z,89.90
2022-12-24T18:52:40.626Z,92.00
2022-12-24T18:55:10.571Z,89.20
2022-12-24T18:57:40.046Z,80.15
2022-12-24T19:00:12.212Z,85.15
2022-12-24T19:02:41.658Z,80.55
2022-12-24T19:05:15.198Z,76.00
2022-12-24T19:07:44.864Z,76.35
2022-12-24T19:10:14.317Z,81.00
2022-12-24T19:12:44.370Z,80.13
2022-12-24T19:15:14.610Z,74.35
2022-12-24T19:17:44.233Z,74.65
2022-12-24T19:20:13.750Z,79.45
2022-12-24T19:22:42.997Z,83.97
2022-12-24T19:25:12.509Z,85.80
2022-12-24T19:27:41.690Z,81.80
2022-12-24T19:30:12.879Z,84.20
2022-12-24T19:32:42.397Z,88.67
2022-12-24T19:35:11.887Z,76.70
2022-12-24T19:37:41.302Z,77.30
2022-12-24T19:40:12.139Z,70.25
2022-12-24T19:42:41.380Z,72.03
2022-12-24T19:45:11.803Z,75.20
2022-12-24T19:47:41.119Z,72.93
2022-12-24T19:50:11.938Z,72.00
2022-12-24T19:52:41.364Z,71.95
2022-12-24T19:55:11.672Z,77.75
2022-12-24T19:57:41.551Z,88.75
2022-12-24T20:00:11.823Z,83.50
2022-12-24T20:02:44.086Z,79.47
2022-12-24T20:05:14.028Z,75.35
2022-12-24T20:07:43.750Z,73.05
2022-12-24T20:10:13.156Z,80.57
2022-12-24T20:12:42.543Z,77.55
2022-12-24T20:15:12.319Z,93.90
2022-12-24T20:17:41.844Z,107.30
2022-12-24T20:20:12.422Z,89.53
2022-12-24T20:22:41.849Z,85.30
2022-12-24T20:25:11.361Z,82.15
2022-12-24T20:27:40.735Z,76.10
2022-12-24T20:30:10.933Z,80.40
2022-12-24T20:32:40.970Z,78.10
2022-12-24T20:35:10.341Z,74.20
2022-12-24T20:37:45.739Z,70.83
2022-12-24T20:40:16.543Z,81.95
2022-12-24T20:42:45.912Z,79.20
2022-12-24T20:45:15.891Z,82.87
2022-12-24T20:47:46.094Z,75.83
2022-12-24T20:50:15.988Z,74.55
2022-12-24T20:52:45.848Z,72.37
2022-12-24T20:55:16.927Z,80.55
2022-12-24T20:57:47.949Z,84.45
2022-12-24T21:00:19.664Z,81.35
2022-12-24T21:02:49.306Z,81.40
2022-12-24T21:05:21.657Z,79.70
2022-12-24T21:07:50.967Z,75.50
2022-12-24T21:10:21.490Z,79.85
2022-12-24T21:12:56.535Z,86.77
2022-12-24T21:15:27.376Z,86.75
2022-12-24T21:17:58.562Z,84.27
2022-12-24T21:20:30.425Z,94.45
2022-12-24T21:23:01.396Z,95.85
2022-12-24T21:25:31.234Z,94.53
2022-12-24T21:28:00.600Z,91.20
2022-12-24T21:30:32.003Z,80.75
2022-12-24T21:33:03.008Z,85.85
2022-12-24T21:35:32.433Z,76.00
2022-12-24T21:38:02.102Z,76.87
2022-12-24T21:40:31.279Z,80.00
2022-12-24T21:43:00.908Z,76.15
2022-12-24T21:45:30.310Z,77.05
2022-12-24T21:48:20.947Z,80.17
2022-12-24T21:50:57.992Z,78.35
2022-12-24T21:53:46.397Z,70.70
2022-12-24T21:56:15.819Z,83.25
2022-12-24T21:58:45.131Z,87.90
2022-12-24T22:01:16.529Z,90.30
2022-12-24T22:03:49.255Z,86.77
2022-12-24T22:06:33.279Z,92.27
2022-12-24T22:09:20.989Z,91.93
2022-12-24T22:11:54.601Z,92.40
2022-12-24T22:14:25.164Z,83.90
2022-12-24T22:16:54.677Z,76.85
2022-12-24T22:19:24.008Z,72.50
2022-12-24T22:21:53.224Z,74.63
2022-12-24T22:24:23.108Z,74.95
2022-12-24T22:26:52.509Z,74.70
2022-12-24T22:29:21.720Z,73.30
2022-12-24T22:31:51.006Z,77.63
2022-12-24T22:34:20.469Z,71.35
2022-12-24T22:36:49.711Z,70.70
2022-12-24T22:39:18.904Z,71.45
2022-12-24T22:41:48.104Z,72.90
2022-12-24T22:44:17.323Z,74.10
2022-12-24T22:46:46.759Z,75.90
2022-12-24T22:49:15.979Z,70.63
2022-12-24T22:51:45.266Z,71.57
2022-12-24T22:54:14.569Z,71.85
2022-12-24T22:56:44.548Z,71.80
2022-12-24T22:59:14.304Z,70.23
2022-12-24T23:01:44.738Z,67.53
2022-12-24T23:04:14.495Z,71.20
2022-12-24T23:06:44.644Z,73.45
2022-12-24T23:09:15.401Z,75.30
2022-12-24T23:11:45.222Z,81.45
2022-12-24T23:14:36.864Z,91.70
2022-12-24T23:17:06.831Z,105.05
2022-12-24T23:19:36.062Z,98.07
2022-12-24T23:22:06.186Z,100.33
2022-12-24T23:24:37.547Z,91.05
2022-12-24T23:27:07.004Z,82.23
2022-12-24T23:29:36.740Z,80.00
2022-12-24T23:32:06.052Z,77.13
2022-12-24T23:34:35.517Z,77.40
2022-12-24T23:37:05.974Z,76.10
2022-12-24T23:39:35.389Z,75.37
2022-12-24T23:42:04.980Z,74.33
2022-12-24T23:44:34.226Z,74.10
2022-12-24T23:47:03.834Z,71.35
2022-12-24T23:49:34.223Z,73.85
2022-12-24T23:52:04.141Z,70.50
2022-12-24T23:54:34.262Z,72.60
2022-12-24T23:57:03.795Z,74.10
2022-12-24T23:59:33.311Z,69.57
